Aeroporto :
LOGIN :

Iscrizione | Disclaimer

   EN    FR    IT 

 










Sommario :    VFR   VFR Marginale   IFR   IFR Intensivo   IFR Molto Intensivo
Visibilità : 
Base nubi : 
>= 8 km
>= 3000ft
5 / 8 km
1000 / 3000 ft
1500m / 5 km
500 / 1000 ft
800 / 1500m
200 / 500 ft
< 800m
< 200 ft
Simboli :   Temporali  Nebbia  Neve Forte  Precipitazioni Forti  Vento > 20 kt
SIGMETs :   Varie  Temporali  Ghiacco  Turbolenza  Onda orograficha  Ceneri Vulcaniche






- Altitudine del aeroporto : 11 ft
- Codice IATA : SKN


ENSK - Stokmarknes Skagen

ULTIMO METAR :
  • 260950Z 03004KT 9999 VCSH FEW020 BKN025 02/01 Q1007

METARs OBSOLETI :
  • 260920Z 03004KT 9999 FEW025 BKN030 01/01 Q1008
  • 260850Z 01006KT 9999 FEW025 BKN030 01/01 Q1007
  • 260820Z 01004KT 9999 FEW025 BKN030 01/01 Q1006
  • 260750Z 35003KT 9999 FEW025 BKN030 00/M00 Q1006
  • 260720Z 34003KT 9999 FEW025 SCT030 M00/M00 Q1006

TAF N/A



MetMap, La meteo Aeronautica in un colpo d'occhio ! - Copyright ORBIFLY Dicembre 2007 - Disclaimer

ORBIFLY MET'MAP TEAM :

Programmazione e sviluppo : Alexandra Zaïnal
Concezione : Baudouin d'Aumeries
Aiuto per la programmazione : Marc-Olivier Méhu
Supporto tecnico e logistico : Manuel Goepfert
Aiuto per la traduzione : Arnaldo La Scala

Contatto : metmap@orbifly.com




FONTI E CREDITI :

   NOAA